sensor_id;sensor_type;location;lat;lon;timestamp;P1;durP1;ratioP1;P2;durP2;ratioP2
3211;SDS011;1618;47.056;15.472;2023-07-31T00:00:16;12.00;;;11.50;;
3211;SDS011;1618;47.056;15.472;2023-07-31T00:02:43;12.60;;;12.10;;
3211;SDS011;1618;47.056;15.472;2023-07-31T00:05:12;12.80;;;12.30;;
3211;SDS011;1618;47.056;15.472;2023-07-31T00:07:41;13.13;;;12.60;;
3211;SDS011;1618;47.056;15.472;2023-07-31T00:10:10;13.40;;;12.80;;
3211;SDS011;1618;47.056;15.472;2023-07-31T00:15:41;12.53;;;12.03;;
3211;SDS011;1618;47.056;15.472;2023-07-31T00:18:10;12.20;;;11.70;;
3211;SDS011;1618;47.056;15.472;2023-07-31T00:20:37;12.10;;;11.60;;
3211;SDS011;1618;47.056;15.472;2023-07-31T00:23:07;11.70;;;11.20;;
3211;SDS011;1618;47.056;15.472;2023-07-31T00:25:34;11.97;;;11.47;;
3211;SDS011;1618;47.056;15.472;2023-07-31T00:28:02;10.93;;;10.53;;
3211;SDS011;1618;47.056;15.472;2023-07-31T00:30:31;10.37;;;9.97;;
3211;SDS011;1618;47.056;15.472;2023-07-31T00:32:58;10.70;;;10.30;;
3211;SDS011;1618;47.056;15.472;2023-07-31T00:35:28;10.33;;;9.93;;
3211;SDS011;1618;47.056;15.472;2023-07-31T00:37:57;10.30;;;9.90;;
3211;SDS011;1618;47.056;15.472;2023-07-31T00:40:27;10.50;;;10.10;;
3211;SDS011;1618;47.056;15.472;2023-07-31T00:42:54;10.70;;;10.30;;
3211;SDS011;1618;47.056;15.472;2023-07-31T00:45:23;10.90;;;10.50;;
3211;SDS011;1618;47.056;15.472;2023-07-31T00:47:52;11.20;;;10.80;;
3211;SDS011;1618;47.056;15.472;2023-07-31T00:50:20;12.37;;;11.87;;
3211;SDS011;1618;47.056;15.472;2023-07-31T00:52:49;12.97;;;12.40;;
3211;SDS011;1618;47.056;15.472;2023-07-31T00:55:16;13.80;;;13.20;;
3211;SDS011;1618;47.056;15.472;2023-07-31T00:57:45;12.80;;;12.30;;
3211;SDS011;1618;47.056;15.472;2023-07-31T01:00:14;11.80;;;11.30;;
3211;SDS011;1618;47.056;15.472;2023-07-31T01:02:42;10.87;;;10.47;;
3211;SDS011;1618;47.056;15.472;2023-07-31T01:05:10;9.50;;;9.20;;
3211;SDS011;1618;47.056;15.472;2023-07-31T01:07:39;9.10;;;8.80;;
3211;SDS011;1618;47.056;15.472;2023-07-31T01:10:08;8.70;;;8.40;;
3211;SDS011;1618;47.056;15.472;2023-07-31T01:12:38;8.60;;;8.30;;
3211;SDS011;1618;47.056;15.472;2023-07-31T01:15:08;9.10;;;8.80;;
3211;SDS011;1618;47.056;15.472;2023-07-31T01:17:37;8.70;;;8.40;;
3211;SDS011;1618;47.056;15.472;2023-07-31T01:20:05;8.70;;;8.40;;
3211;SDS011;1618;47.056;15.472;2023-07-31T01:25:27;8.47;;;8.17;;
3211;SDS011;1618;47.056;15.472;2023-07-31T01:27:59;8.90;;;8.60;;
3211;SDS011;1618;47.056;15.472;2023-07-31T01:30:31;9.80;;;9.40;;
3211;SDS011;1618;47.056;15.472;2023-07-31T01:33:01;10.27;;;9.87;;
3211;SDS011;1618;47.056;15.472;2023-07-31T01:35:32;10.10;;;9.70;;
3211;SDS011;1618;47.056;15.472;2023-07-31T01:38:00;10.20;;;9.80;;
3211;SDS011;1618;47.056;15.472;2023-07-31T01:40:30;10.90;;;10.50;;
3211;SDS011;1618;47.056;15.472;2023-07-31T01:42:59;11.40;;;11.00;;
3211;SDS011;1618;47.056;15.472;2023-07-31T01:45:29;12.60;;;12.10;;
3211;SDS011;1618;47.056;15.472;2023-07-31T01:47:57;12.00;;;11.50;;
3211;SDS011;1618;47.056;15.472;2023-07-31T01:50:24;11.80;;;11.30;;
3211;SDS011;1618;47.056;15.472;2023-07-31T01:52:54;10.80;;;10.40;;
3211;SDS011;1618;47.056;15.472;2023-07-31T01:55:22;10.23;;;9.83;;
3211;SDS011;1618;47.056;15.472;2023-07-31T01:57:49;9.93;;;9.53;;
3211;SDS011;1618;47.056;15.472;2023-07-31T02:00:19;9.00;;;8.70;;
3211;SDS011;1618;47.056;15.472;2023-07-31T02:02:47;8.80;;;8.50;;
3211;SDS011;1618;47.056;15.472;2023-07-31T02:05:15;8.73;;;8.43;;
3211;SDS011;1618;47.056;15.472;2023-07-31T02:07:45;9.20;;;8.90;;
3211;SDS011;1618;47.056;15.472;2023-07-31T02:10:14;9.67;;;9.30;;
3211;SDS011;1618;47.056;15.472;2023-07-31T02:12:42;9.80;;;9.40;;
3211;SDS011;1618;47.056;15.472;2023-07-31T02:15:09;9.30;;;8.97;;
3211;SDS011;1618;47.056;15.472;2023-07-31T02:17:38;9.80;;;9.40;;
3211;SDS011;1618;47.056;15.472;2023-07-31T02:20:06;10.40;;;10.00;;
3211;SDS011;1618;47.056;15.472;2023-07-31T02:22:34;10.73;;;10.33;;
3211;SDS011;1618;47.056;15.472;2023-07-31T02:25:01;10.30;;;9.90;;
3211;SDS011;1618;47.056;15.472;2023-07-31T02:27:29;9.50;;;9.10;;
3211;SDS011;1618;47.056;15.472;2023-07-31T02:29:56;9.30;;;9.00;;
3211;SDS011;1618;47.056;15.472;2023-07-31T02:32:24;9.13;;;8.83;;
3211;SDS011;1618;47.056;15.472;2023-07-31T02:34:55;10.50;;;10.10;;
3211;SDS011;1618;47.056;15.472;2023-07-31T02:37:22;11.90;;;11.40;;
3211;SDS011;1618;47.056;15.472;2023-07-31T02:39:52;11.67;;;11.17;;
3211;SDS011;1618;47.056;15.472;2023-07-31T02:42:20;10.23;;;9.83;;
3211;SDS011;1618;47.056;15.472;2023-07-31T02:44:47;10.70;;;10.30;;
3211;SDS011;1618;47.056;15.472;2023-07-31T02:47:17;10.53;;;10.13;;
3211;SDS011;1618;47.056;15.472;2023-07-31T02:49:45;10.20;;;9.80;;
3211;SDS011;1618;47.056;15.472;2023-07-31T02:52:15;9.97;;;9.57;;
3211;SDS011;1618;47.056;15.472;2023-07-31T02:54:42;9.23;;;8.93;;
3211;SDS011;1618;47.056;15.472;2023-07-31T02:57:11;9.10;;;8.80;;
3211;SDS011;1618;47.056;15.472;2023-07-31T02:59:39;9.30;;;9.00;;
3211;SDS011;1618;47.056;15.472;2023-07-31T03:02:07;10.53;;;10.13;;
3211;SDS011;1618;47.056;15.472;2023-07-31T03:04:34;10.90;;;10.50;;
3211;SDS011;1618;47.056;15.472;2023-07-31T03:07:02;10.67;;;10.27;;
3211;SDS011;1618;47.056;15.472;2023-07-31T03:09:31;11.10;;;10.70;;
3211;SDS011;1618;47.056;15.472;2023-07-31T03:11:58;10.80;;;10.40;;
3211;SDS011;1618;47.056;15.472;2023-07-31T03:14:27;10.40;;;10.00;;
3211;SDS011;1618;47.056;15.472;2023-07-31T03:16:57;10.33;;;9.93;;
3211;SDS011;1618;47.056;15.472;2023-07-31T03:19:25;10.20;;;9.80;;
3211;SDS011;1618;47.056;15.472;2023-07-31T03:21:53;12.17;;;11.67;;
3211;SDS011;1618;47.056;15.472;2023-07-31T03:24:20;12.10;;;11.60;;
3211;SDS011;1618;47.056;15.472;2023-07-31T03:26:50;12.30;;;11.80;;
3211;SDS011;1618;47.056;15.472;2023-07-31T03:29:17;12.47;;;11.97;;
3211;SDS011;1618;47.056;15.472;2023-07-31T03:31:46;12.20;;;11.70;;
3211;SDS011;1618;47.056;15.472;2023-07-31T03:34:13;12.13;;;11.63;;
3211;SDS011;1618;47.056;15.472;2023-07-31T03:36:40;12.40;;;11.90;;
3211;SDS011;1618;47.056;15.472;2023-07-31T03:39:09;13.70;;;13.10;;
3211;SDS011;1618;47.056;15.472;2023-07-31T03:41:36;14.37;;;13.77;;
3211;SDS011;1618;47.056;15.472;2023-07-31T03:44:04;14.00;;;13.40;;
3211;SDS011;1618;47.056;15.472;2023-07-31T03:46:33;12.40;;;11.90;;
3211;SDS011;1618;47.056;15.472;2023-07-31T03:49:01;12.30;;;11.80;;
3211;SDS011;1618;47.056;15.472;2023-07-31T03:51:29;12.13;;;11.63;;
3211;SDS011;1618;47.056;15.472;2023-07-31T03:53:57;11.80;;;11.30;;
3211;SDS011;1618;47.056;15.472;2023-07-31T03:56:26;10.80;;;10.40;;
3211;SDS011;1618;47.056;15.472;2023-07-31T03:58:54;10.63;;;10.23;;
3211;SDS011;1618;47.056;15.472;2023-07-31T04:01:25;9.90;;;9.50;;
3211;SDS011;1618;47.056;15.472;2023-07-31T04:03:52;9.90;;;9.50;;
3211;SDS011;1618;47.056;15.472;2023-07-31T04:06:19;8.90;;;8.60;;
3211;SDS011;1618;47.056;15.472;2023-07-31T04:08:47;9.30;;;9.00;;
3211;SDS011;1618;47.056;15.472;2023-07-31T04:11:16;9.20;;;8.90;;
3211;SDS011;1618;47.056;15.472;2023-07-31T04:13:43;8.70;;;8.40;;
3211;SDS011;1618;47.056;15.472;2023-07-31T04:16:10;8.73;;;8.43;;
3211;SDS011;1618;47.056;15.472;2023-07-31T04:18:40;8.90;;;8.60;;
3211;SDS011;1618;47.056;15.472;2023-07-31T04:21:08;9.17;;;8.87;;
3211;SDS011;1618;47.056;15.472;2023-07-31T04:23:38;9.15;;;8.85;;
3211;SDS011;1618;47.056;15.472;2023-07-31T04:26:05;10.10;;;9.70;;
3211;SDS011;1618;47.056;15.472;2023-07-31T04:28:34;10.00;;;9.60;;
3211;SDS011;1618;47.056;15.472;2023-07-31T04:31:02;9.37;;;9.07;;
3211;SDS011;1618;47.056;15.472;2023-07-31T04:33:29;9.40;;;9.10;;
3211;SDS011;1618;47.056;15.472;2023-07-31T04:35:59;9.23;;;8.93;;
3211;SDS011;1618;47.056;15.472;2023-07-31T04:38:29;9.13;;;8.83;;
3211;SDS011;1618;47.056;15.472;2023-07-31T04:40:57;9.90;;;9.50;;
3211;SDS011;1618;47.056;15.472;2023-07-31T04:43:24;10.90;;;10.50;;
3211;SDS011;1618;47.056;15.472;2023-07-31T04:45:51;10.40;;;10.00;;
3211;SDS011;1618;47.056;15.472;2023-07-31T04:48:19;10.87;;;10.47;;
3211;SDS011;1618;47.056;15.472;2023-07-31T04:50:47;9.97;;;9.57;;
3211;SDS011;1618;47.056;15.472;2023-07-31T04:53:16;10.90;;;10.50;;
3211;SDS011;1618;47.056;15.472;2023-07-31T04:55:44;10.13;;;9.73;;
3211;SDS011;1618;47.056;15.472;2023-07-31T04:58:11;9.10;;;8.80;;
3211;SDS011;1618;47.056;15.472;2023-07-31T05:00:39;10.13;;;9.73;;
3211;SDS011;1618;47.056;15.472;2023-07-31T05:03:06;12.03;;;11.53;;
3211;SDS011;1618;47.056;15.472;2023-07-31T05:05:34;12.73;;;12.23;;
3211;SDS011;1618;47.056;15.472;2023-07-31T05:08:03;15.03;;;14.40;;
3211;SDS011;1618;47.056;15.472;2023-07-31T05:10:31;12.40;;;11.90;;
3211;SDS011;1618;47.056;15.472;2023-07-31T05:12:59;11.33;;;10.93;;
3211;SDS011;1618;47.056;15.472;2023-07-31T05:15:27;11.93;;;11.43;;
3211;SDS011;1618;47.056;15.472;2023-07-31T05:17:55;10.20;;;9.80;;
3211;SDS011;1618;47.056;15.472;2023-07-31T05:20:24;9.93;;;9.53;;
3211;SDS011;1618;47.056;15.472;2023-07-31T05:22:53;10.47;;;10.07;;
3211;SDS011;1618;47.056;15.472;2023-07-31T05:25:22;11.80;;;11.30;;
3211;SDS011;1618;47.056;15.472;2023-07-31T05:27:51;11.90;;;11.40;;
3211;SDS011;1618;47.056;15.472;2023-07-31T05:30:19;12.00;;;11.50;;
3211;SDS011;1618;47.056;15.472;2023-07-31T05:32:46;11.67;;;11.23;;
3211;SDS011;1618;47.056;15.472;2023-07-31T05:35:15;12.63;;;12.13;;
3211;SDS011;1618;47.056;15.472;2023-07-31T05:37:43;11.40;;;11.00;;
3211;SDS011;1618;47.056;15.472;2023-07-31T05:40:10;11.67;;;11.17;;
3211;SDS011;1618;47.056;15.472;2023-07-31T05:42:38;11.50;;;11.10;;
3211;SDS011;1618;47.056;15.472;2023-07-31T05:45:07;12.07;;;11.57;;
3211;SDS011;1618;47.056;15.472;2023-07-31T05:47:36;12.90;;;12.40;;
3211;SDS011;1618;47.056;15.472;2023-07-31T05:50:04;12.17;;;11.67;;
3211;SDS011;1618;47.056;15.472;2023-07-31T05:52:32;12.87;;;12.37;;
3211;SDS011;1618;47.056;15.472;2023-07-31T05:55:00;13.00;;;12.50;;
3211;SDS011;1618;47.056;15.472;2023-07-31T05:57:33;13.60;;;13.00;;
3211;SDS011;1618;47.056;15.472;2023-07-31T06:00:01;13.83;;;13.23;;
3211;SDS011;1618;47.056;15.472;2023-07-31T06:02:31;13.10;;;12.60;;
3211;SDS011;1618;47.056;15.472;2023-07-31T06:05:07;12.17;;;11.67;;
3211;SDS011;1618;47.056;15.472;2023-07-31T06:07:43;12.03;;;11.53;;
3211;SDS011;1618;47.056;15.472;2023-07-31T06:10:16;11.90;;;11.40;;
3211;SDS011;1618;47.056;15.472;2023-07-31T06:12:45;10.90;;;10.50;;
3211;SDS011;1618;47.056;15.472;2023-07-31T06:15:13;12.97;;;12.47;;
3211;SDS011;1618;47.056;15.472;2023-07-31T06:17:46;12.93;;;12.43;;
3211;SDS011;1618;47.056;15.472;2023-07-31T06:20:15;14.17;;;13.57;;
3211;SDS011;1618;47.056;15.472;2023-07-31T06:22:52;15.20;;;14.50;;
3211;SDS011;1618;47.056;15.472;2023-07-31T06:25:21;15.30;;;14.60;;
3211;SDS011;1618;47.056;15.472;2023-07-31T06:27:49;14.30;;;13.70;;
3211;SDS011;1618;47.056;15.472;2023-07-31T06:30:23;14.50;;;13.80;;
3211;SDS011;1618;47.056;15.472;2023-07-31T06:32:53;16.30;;;15.57;;
3211;SDS011;1618;47.056;15.472;2023-07-31T06:35:25;15.60;;;14.90;;
3211;SDS011;1618;47.056;15.472;2023-07-31T06:37:55;17.33;;;16.53;;
3211;SDS011;1618;47.056;15.472;2023-07-31T06:40:23;19.20;;;18.30;;
3211;SDS011;1618;47.056;15.472;2023-07-31T06:42:52;20.37;;;19.37;;
3211;SDS011;1618;47.056;15.472;2023-07-31T06:45:20;18.80;;;17.90;;
3211;SDS011;1618;47.056;15.472;2023-07-31T06:47:49;18.50;;;17.60;;
3211;SDS011;1618;47.056;15.472;2023-07-31T06:50:17;19.90;;;18.90;;
3211;SDS011;1618;47.056;15.472;2023-07-31T06:52:46;18.40;;;17.50;;
3211;SDS011;1618;47.056;15.472;2023-07-31T06:55:16;19.80;;;18.80;;
3211;SDS011;1618;47.056;15.472;2023-07-31T06:57:46;22.10;;;20.90;;
3211;SDS011;1618;47.056;15.472;2023-07-31T07:00:13;24.70;;;23.30;;
3211;SDS011;1618;47.056;15.472;2023-07-31T07:02:41;24.43;;;22.93;;
3211;SDS011;1618;47.056;15.472;2023-07-31T07:05:08;25.00;;;23.50;;
3211;SDS011;1618;47.056;15.472;2023-07-31T07:07:38;25.30;;;23.70;;
3211;SDS011;1618;47.056;15.472;2023-07-31T07:10:06;26.47;;;24.67;;
3211;SDS011;1618;47.056;15.472;2023-07-31T07:12:34;26.77;;;24.87;;
3211;SDS011;1618;47.056;15.472;2023-07-31T07:15:02;26.80;;;24.90;;
3211;SDS011;1618;47.056;15.472;2023-07-31T07:17:30;27.20;;;25.30;;
3211;SDS011;1618;47.056;15.472;2023-07-31T07:19:59;26.80;;;24.90;;
3211;SDS011;1618;47.056;15.472;2023-07-31T07:22:30;26.80;;;24.90;;
3211;SDS011;1618;47.056;15.472;2023-07-31T07:25:00;26.87;;;24.93;;
3211;SDS011;1618;47.056;15.472;2023-07-31T07:27:28;26.77;;;24.87;;
3211;SDS011;1618;47.056;15.472;2023-07-31T07:29:56;28.03;;;26.03;;
3211;SDS011;1618;47.056;15.472;2023-07-31T07:32:25;27.87;;;25.97;;
3211;SDS011;1618;47.056;15.472;2023-07-31T07:34:53;27.40;;;25.40;;
3211;SDS011;1618;47.056;15.472;2023-07-31T07:37:21;28.83;;;26.73;;
3211;SDS011;1618;47.056;15.472;2023-07-31T07:39:49;28.67;;;26.67;;
3211;SDS011;1618;47.056;15.472;2023-07-31T07:42:23;28.47;;;26.47;;
3211;SDS011;1618;47.056;15.472;2023-07-31T07:44:51;28.43;;;26.33;;
3211;SDS011;1618;47.056;15.472;2023-07-31T07:47:20;30.33;;;28.13;;
3211;SDS011;1618;47.056;15.472;2023-07-31T07:49:49;26.80;;;24.70;;
3211;SDS011;1618;47.056;15.472;2023-07-31T07:52:16;26.47;;;24.37;;
3211;SDS011;1618;47.056;15.472;2023-07-31T07:54:45;26.37;;;24.33;;
3211;SDS011;1618;47.056;15.472;2023-07-31T07:57:12;28.97;;;26.87;;
3211;SDS011;1618;47.056;15.472;2023-07-31T07:59:42;29.50;;;27.30;;
3211;SDS011;1618;47.056;15.472;2023-07-31T08:02:10;29.37;;;27.17;;
3211;SDS011;1618;47.056;15.472;2023-07-31T08:04:38;28.87;;;26.67;;
3211;SDS011;1618;47.056;15.472;2023-07-31T08:07:06;29.80;;;27.50;;
3211;SDS011;1618;47.056;15.472;2023-07-31T08:09:36;30.70;;;28.30;;
3211;SDS011;1618;47.056;15.472;2023-07-31T08:12:04;30.80;;;28.40;;
3211;SDS011;1618;47.056;15.472;2023-07-31T08:14:32;30.60;;;28.20;;
3211;SDS011;1618;47.056;15.472;2023-07-31T08:17:04;30.03;;;27.73;;
3211;SDS011;1618;47.056;15.472;2023-07-31T08:19:32;29.80;;;27.50;;
3211;SDS011;1618;47.056;15.472;2023-07-31T08:21:59;30.63;;;28.23;;
3211;SDS011;1618;47.056;15.472;2023-07-31T08:24:28;30.00;;;27.60;;
3211;SDS011;1618;47.056;15.472;2023-07-31T08:26:58;31.10;;;28.70;;
3211;SDS011;1618;47.056;15.472;2023-07-31T08:29:26;30.73;;;28.33;;
3211;SDS011;1618;47.056;15.472;2023-07-31T08:31:54;29.87;;;27.67;;
3211;SDS011;1618;47.056;15.472;2023-07-31T08:34:24;30.50;;;28.30;;
3211;SDS011;1618;47.056;15.472;2023-07-31T08:36:52;29.07;;;26.80;;
3211;SDS011;1618;47.056;15.472;2023-07-31T08:39:22;29.33;;;27.03;;
3211;SDS011;1618;47.056;15.472;2023-07-31T08:42:00;30.20;;;27.90;;
3211;SDS011;1618;47.056;15.472;2023-07-31T08:44:27;29.40;;;27.10;;
3211;SDS011;1618;47.056;15.472;2023-07-31T08:46:56;29.27;;;26.97;;
3211;SDS011;1618;47.056;15.472;2023-07-31T08:49:26;28.20;;;26.00;;
3211;SDS011;1618;47.056;15.472;2023-07-31T08:51:57;28.47;;;26.27;;
3211;SDS011;1618;47.056;15.472;2023-07-31T08:54:29;28.40;;;26.20;;
3211;SDS011;1618;47.056;15.472;2023-07-31T08:57:00;29.00;;;26.70;;
3211;SDS011;1618;47.056;15.472;2023-07-31T08:59:29;29.53;;;27.23;;
3211;SDS011;1618;47.056;15.472;2023-07-31T09:01:59;28.30;;;26.00;;
3211;SDS011;1618;47.056;15.472;2023-07-31T09:04:30;28.97;;;26.57;;
3211;SDS011;1618;47.056;15.472;2023-07-31T09:06:59;30.00;;;27.60;;
3211;SDS011;1618;47.056;15.472;2023-07-31T09:09:30;29.90;;;27.50;;
3211;SDS011;1618;47.056;15.472;2023-07-31T09:11:57;29.70;;;27.23;;
3211;SDS011;1618;47.056;15.472;2023-07-31T09:14:30;29.07;;;26.67;;
3211;SDS011;1618;47.056;15.472;2023-07-31T09:17:00;29.73;;;27.27;;
3211;SDS011;1618;47.056;15.472;2023-07-31T09:19:29;29.50;;;27.10;;
3211;SDS011;1618;47.056;15.472;2023-07-31T09:22:01;30.10;;;27.60;;
3211;SDS011;1618;47.056;15.472;2023-07-31T09:24:30;29.30;;;26.90;;
3211;SDS011;1618;47.056;15.472;2023-07-31T09:27:05;29.50;;;27.10;;
3211;SDS011;1618;47.056;15.472;2023-07-31T09:29:35;30.03;;;27.63;;
3211;SDS011;1618;47.056;15.472;2023-07-31T09:32:02;30.70;;;28.20;;
3211;SDS011;1618;47.056;15.472;2023-07-31T09:34:36;29.80;;;27.40;;
3211;SDS011;1618;47.056;15.472;2023-07-31T09:37:10;30.73;;;28.33;;
3211;SDS011;1618;47.056;15.472;2023-07-31T09:39:45;29.63;;;27.33;;
3211;SDS011;1618;47.056;15.472;2023-07-31T09:42:12;30.23;;;27.83;;
3211;SDS011;1618;47.056;15.472;2023-07-31T09:44:40;30.30;;;28.00;;
3211;SDS011;1618;47.056;15.472;2023-07-31T09:47:20;30.40;;;28.00;;
3211;SDS011;1618;47.056;15.472;2023-07-31T09:49:50;30.27;;;27.87;;
3211;SDS011;1618;47.056;15.472;2023-07-31T09:52:21;30.50;;;28.00;;
3211;SDS011;1618;47.056;15.472;2023-07-31T09:54:49;30.30;;;27.80;;
3211;SDS011;1618;47.056;15.472;2023-07-31T09:57:17;30.20;;;27.70;;
3211;SDS011;1618;47.056;15.472;2023-07-31T09:59:45;29.70;;;27.20;;
3211;SDS011;1618;47.056;15.472;2023-07-31T10:02:21;30.63;;;28.13;;
3211;SDS011;1618;47.056;15.472;2023-07-31T10:04:49;29.83;;;27.43;;
3211;SDS011;1618;47.056;15.472;2023-07-31T10:07:17;29.90;;;27.50;;
3211;SDS011;1618;47.056;15.472;2023-07-31T10:09:47;30.37;;;27.90;;
3211;SDS011;1618;47.056;15.472;2023-07-31T10:12:14;30.63;;;28.13;;
3211;SDS011;1618;47.056;15.472;2023-07-31T10:14:43;30.90;;;28.40;;
3211;SDS011;1618;47.056;15.472;2023-07-31T10:17:14;31.30;;;28.80;;
3211;SDS011;1618;47.056;15.472;2023-07-31T10:19:42;30.93;;;28.43;;
3211;SDS011;1618;47.056;15.472;2023-07-31T10:22:12;30.80;;;28.40;;
3211;SDS011;1618;47.056;15.472;2023-07-31T10:24:40;30.40;;;27.90;;
3211;SDS011;1618;47.056;15.472;2023-07-31T10:27:10;30.67;;;28.27;;
3211;SDS011;1618;47.056;15.472;2023-07-31T10:29:39;31.20;;;28.70;;
3211;SDS011;1618;47.056;15.472;2023-07-31T10:32:07;30.90;;;28.40;;
3211;SDS011;1618;47.056;15.472;2023-07-31T10:34:35;28.70;;;26.30;;
3211;SDS011;1618;47.056;15.472;2023-07-31T10:39:46;30.20;;;27.70;;
3211;SDS011;1618;47.056;15.472;2023-07-31T10:42:28;29.20;;;26.70;;
3211;SDS011;1618;47.056;15.472;2023-07-31T10:44:56;28.23;;;25.83;;
3211;SDS011;1618;47.056;15.472;2023-07-31T10:47:25;31.90;;;29.30;;
3211;SDS011;1618;47.056;15.472;2023-07-31T10:49:53;27.10;;;24.70;;
3211;SDS011;1618;47.056;15.472;2023-07-31T10:52:20;27.50;;;25.10;;
3211;SDS011;1618;47.056;15.472;2023-07-31T10:57:39;29.20;;;26.70;;
3211;SDS011;1618;47.056;15.472;2023-07-31T11:00:20;29.10;;;26.50;;
3211;SDS011;1618;47.056;15.472;2023-07-31T11:02:58;29.83;;;27.23;;
3211;SDS011;1618;47.056;15.472;2023-07-31T11:05:41;29.50;;;27.00;;
3211;SDS011;1618;47.056;15.472;2023-07-31T11:08:13;29.83;;;27.23;;
3211;SDS011;1618;47.056;15.472;2023-07-31T11:10:42;29.57;;;26.97;;
3211;SDS011;1618;47.056;15.472;2023-07-31T11:13:11;29.13;;;26.53;;
3211;SDS011;1618;47.056;15.472;2023-07-31T11:15:40;30.63;;;28.03;;
3211;SDS011;1618;47.056;15.472;2023-07-31T11:18:07;31.70;;;29.20;;
3211;SDS011;1618;47.056;15.472;2023-07-31T11:20:36;30.53;;;27.83;;
3211;SDS011;1618;47.056;15.472;2023-07-31T11:23:06;30.60;;;27.90;;
3211;SDS011;1618;47.056;15.472;2023-07-31T11:25:36;29.53;;;26.93;;
3211;SDS011;1618;47.056;15.472;2023-07-31T11:28:05;30.00;;;27.30;;
3211;SDS011;1618;47.056;15.472;2023-07-31T11:30:37;31.03;;;28.43;;
3211;SDS011;1618;47.056;15.472;2023-07-31T11:33:06;33.40;;;30.80;;
3211;SDS011;1618;47.056;15.472;2023-07-31T11:35:41;34.13;;;31.53;;
3211;SDS011;1618;47.056;15.472;2023-07-31T11:38:12;31.30;;;28.70;;
3211;SDS011;1618;47.056;15.472;2023-07-31T11:40:42;30.10;;;27.60;;
3211;SDS011;1618;47.056;15.472;2023-07-31T11:43:12;32.00;;;29.40;;
3211;SDS011;1618;47.056;15.472;2023-07-31T11:45:45;33.00;;;30.40;;
3211;SDS011;1618;47.056;15.472;2023-07-31T11:48:25;34.30;;;31.60;;
3211;SDS011;1618;47.056;15.472;2023-07-31T11:50:57;34.80;;;32.10;;
3211;SDS011;1618;47.056;15.472;2023-07-31T11:53:26;31.70;;;29.00;;
3211;SDS011;1618;47.056;15.472;2023-07-31T11:55:54;31.23;;;28.53;;
3211;SDS011;1618;47.056;15.472;2023-07-31T11:58:22;31.57;;;28.87;;
3211;SDS011;1618;47.056;15.472;2023-07-31T12:00:54;31.90;;;29.20;;
3211;SDS011;1618;47.056;15.472;2023-07-31T12:03:21;29.70;;;27.00;;
3211;SDS011;1618;47.056;15.472;2023-07-31T12:05:48;31.03;;;28.43;;
3211;SDS011;1618;47.056;15.472;2023-07-31T12:08:16;30.73;;;27.93;;
3211;SDS011;1618;47.056;15.472;2023-07-31T12:10:43;32.60;;;29.90;;
3211;SDS011;1618;47.056;15.472;2023-07-31T12:13:19;34.80;;;31.90;;
3211;SDS011;1618;47.056;15.472;2023-07-31T12:15:48;34.20;;;31.40;;
3211;SDS011;1618;47.056;15.472;2023-07-31T12:18:19;32.13;;;29.33;;
3211;SDS011;1618;47.056;15.472;2023-07-31T12:20:53;34.23;;;31.50;;
3211;SDS011;1618;47.056;15.472;2023-07-31T12:23:22;34.50;;;31.80;;
3211;SDS011;1618;47.056;15.472;2023-07-31T12:26:03;32.80;;;30.20;;
3211;SDS011;1618;47.056;15.472;2023-07-31T12:28:34;33.83;;;31.13;;
3211;SDS011;1618;47.056;15.472;2023-07-31T12:31:04;33.37;;;30.67;;
3211;SDS011;1618;47.056;15.472;2023-07-31T12:33:34;33.13;;;30.43;;
3211;SDS011;1618;47.056;15.472;2023-07-31T12:36:02;31.73;;;28.93;;
3211;SDS011;1618;47.056;15.472;2023-07-31T12:38:30;33.27;;;30.57;;
3211;SDS011;1618;47.056;15.472;2023-07-31T12:40:58;33.40;;;30.60;;
3211;SDS011;1618;47.056;15.472;2023-07-31T12:43:26;32.53;;;29.73;;
3211;SDS011;1618;47.056;15.472;2023-07-31T12:45:54;33.37;;;30.53;;
3211;SDS011;1618;47.056;15.472;2023-07-31T12:48:22;33.30;;;30.50;;
3211;SDS011;1618;47.056;15.472;2023-07-31T12:50:51;33.40;;;30.50;;
3211;SDS011;1618;47.056;15.472;2023-07-31T12:53:19;34.70;;;31.80;;
3211;SDS011;1618;47.056;15.472;2023-07-31T12:55:47;33.77;;;30.97;;
3211;SDS011;1618;47.056;15.472;2023-07-31T12:58:15;33.40;;;30.70;;
3211;SDS011;1618;47.056;15.472;2023-07-31T13:00:43;33.20;;;30.40;;
3211;SDS011;1618;47.056;15.472;2023-07-31T13:03:11;32.60;;;29.90;;
3211;SDS011;1618;47.056;15.472;2023-07-31T13:05:39;33.83;;;31.03;;
3211;SDS011;1618;47.056;15.472;2023-07-31T13:08:10;33.30;;;30.60;;
3211;SDS011;1618;47.056;15.472;2023-07-31T13:10:38;31.10;;;28.40;;
3211;SDS011;1618;47.056;15.472;2023-07-31T13:13:06;30.40;;;27.73;;
3211;SDS011;1618;47.056;15.472;2023-07-31T13:15:35;31.47;;;28.77;;
3211;SDS011;1618;47.056;15.472;2023-07-31T13:18:03;30.20;;;27.50;;
3211;SDS011;1618;47.056;15.472;2023-07-31T13:20:30;32.87;;;30.20;;
3211;SDS011;1618;47.056;15.472;2023-07-31T13:22:58;32.33;;;29.63;;
3211;SDS011;1618;47.056;15.472;2023-07-31T13:25:28;31.57;;;28.87;;
3211;SDS011;1618;47.056;15.472;2023-07-31T13:27:55;31.33;;;28.53;;
3211;SDS011;1618;47.056;15.472;2023-07-31T13:30:22;32.43;;;29.77;;
3211;SDS011;1618;47.056;15.472;2023-07-31T13:32:50;32.27;;;29.57;;
3211;SDS011;1618;47.056;15.472;2023-07-31T13:35:18;32.30;;;29.60;;
3211;SDS011;1618;47.056;15.472;2023-07-31T13:37:45;32.60;;;29.90;;
3211;SDS011;1618;47.056;15.472;2023-07-31T13:40:12;32.10;;;29.40;;
3211;SDS011;1618;47.056;15.472;2023-07-31T13:42:43;32.30;;;29.60;;
3211;SDS011;1618;47.056;15.472;2023-07-31T13:45:12;31.47;;;28.87;;
3211;SDS011;1618;47.056;15.472;2023-07-31T13:47:40;31.17;;;28.47;;
3211;SDS011;1618;47.056;15.472;2023-07-31T13:50:08;31.87;;;29.17;;
3211;SDS011;1618;47.056;15.472;2023-07-31T13:52:35;31.27;;;28.57;;
3211;SDS011;1618;47.056;15.472;2023-07-31T13:55:03;29.97;;;27.37;;
3211;SDS011;1618;47.056;15.472;2023-07-31T13:57:32;30.17;;;27.37;;
3211;SDS011;1618;47.056;15.472;2023-07-31T14:00:03;30.10;;;27.30;;
3211;SDS011;1618;47.056;15.472;2023-07-31T14:02:31;30.80;;;27.90;;
3211;SDS011;1618;47.056;15.472;2023-07-31T14:05:00;29.70;;;26.90;;
3211;SDS011;1618;47.056;15.472;2023-07-31T14:07:28;29.60;;;26.90;;
3211;SDS011;1618;47.056;15.472;2023-07-31T14:09:57;29.33;;;26.63;;
3211;SDS011;1618;47.056;15.472;2023-07-31T14:12:26;29.30;;;26.60;;
3211;SDS011;1618;47.056;15.472;2023-07-31T14:14:54;28.67;;;26.03;;
3211;SDS011;1618;47.056;15.472;2023-07-31T14:17:22;31.40;;;28.80;;
3211;SDS011;1618;47.056;15.472;2023-07-31T14:19:50;31.00;;;28.10;;
3211;SDS011;1618;47.056;15.472;2023-07-31T14:22:26;31.30;;;28.60;;
3211;SDS011;1618;47.056;15.472;2023-07-31T14:24:55;33.90;;;31.30;;
3211;SDS011;1618;47.056;15.472;2023-07-31T14:27:24;31.40;;;28.90;;
3211;SDS011;1618;47.056;15.472;2023-07-31T14:29:53;32.07;;;29.27;;
3211;SDS011;1618;47.056;15.472;2023-07-31T14:32:20;33.20;;;30.30;;
3211;SDS011;1618;47.056;15.472;2023-07-31T14:34:49;31.80;;;29.20;;
3211;SDS011;1618;47.056;15.472;2023-07-31T14:37:17;29.80;;;27.23;;
3211;SDS011;1618;47.056;15.472;2023-07-31T14:39:46;30.70;;;28.03;;
3211;SDS011;1618;47.056;15.472;2023-07-31T14:42:15;33.60;;;31.00;;
3211;SDS011;1618;47.056;15.472;2023-07-31T14:44:44;33.33;;;30.53;;
3211;SDS011;1618;47.056;15.472;2023-07-31T14:47:14;34.00;;;31.10;;
3211;SDS011;1618;47.056;15.472;2023-07-31T14:49:42;33.77;;;31.13;;
3211;SDS011;1618;47.056;15.472;2023-07-31T14:52:11;34.57;;;31.87;;
3211;SDS011;1618;47.056;15.472;2023-07-31T14:54:38;34.37;;;31.77;;
3211;SDS011;1618;47.056;15.472;2023-07-31T14:57:11;33.90;;;31.30;;
3211;SDS011;1618;47.056;15.472;2023-07-31T14:59:39;33.23;;;30.63;;